createdAt,value
2018-11-13T00:04:28.738Z,23.30
2018-11-13T00:09:32.098Z,24.37
2018-11-13T00:14:35.477Z,24.43
2018-11-13T00:19:38.863Z,26.57
2018-11-13T00:24:42.241Z,25.20
2018-11-13T00:29:45.620Z,27.27
2018-11-13T00:34:48.982Z,27.70
2018-11-13T00:39:52.357Z,25.80
2018-11-13T00:44:56.056Z,26.77
2018-11-13T00:49:59.434Z,25.20
2018-11-13T00:55:03.163Z,26.00
2018-11-13T01:00:08.654Z,22.67
2018-11-13T01:05:13.952Z,23.13
2018-11-13T01:10:18.498Z,26.17
2018-11-13T01:15:21.958Z,26.43
2018-11-13T01:20:25.352Z,27.17
2018-11-13T01:25:28.711Z,22.97
2018-11-13T01:30:32.076Z,25.00
2018-11-13T01:35:35.442Z,27.27
2018-11-13T01:40:39.323Z,26.87
2018-11-13T01:45:42.702Z,24.07
2018-11-13T01:50:46.096Z,23.57
2018-11-13T01:55:49.474Z,29.43
2018-11-13T02:00:52.843Z,27.50
2018-11-13T02:05:56.197Z,27.73
2018-11-13T02:10:59.586Z,27.40
2018-11-13T02:16:03.077Z,27.97
2018-11-13T02:21:06.518Z,28.97
2018-11-13T02:26:09.964Z,28.93
2018-11-13T02:31:13.314Z,29.23
2018-11-13T02:36:16.943Z,27.03
2018-11-13T02:41:20.339Z,27.63
2018-11-13T02:46:23.783Z,28.77
2018-11-13T02:51:27.136Z,25.47
2018-11-13T02:56:30.560Z,29.47
2018-11-13T03:01:33.942Z,26.60
2018-11-13T03:06:37.316Z,27.67
2018-11-13T03:11:40.902Z,26.53
2018-11-13T03:16:44.300Z,25.93
2018-11-13T03:21:47.720Z,25.50
2018-11-13T03:26:51.152Z,23.70
2018-11-13T03:31:54.530Z,25.25
2018-11-13T03:36:59.137Z,24.00
2018-11-13T03:42:02.586Z,23.93
2018-11-13T03:47:06.382Z,25.97
2018-11-13T03:52:09.826Z,23.83
2018-11-13T03:57:13.246Z,26.37
2018-11-13T04:02:16.678Z,26.67
2018-11-13T04:07:20.265Z,24.83
2018-11-13T04:12:23.738Z,26.87
2018-11-13T04:17:27.122Z,28.33
2018-11-13T04:22:30.523Z,28.50
2018-11-13T04:27:33.904Z,28.00
2018-11-13T04:32:37.447Z,27.30
2018-11-13T04:37:40.816Z,28.23
2018-11-13T04:42:45.528Z,28.63
2018-11-13T04:47:49.523Z,29.50
2018-11-13T04:52:52.927Z,30.20
2018-11-13T04:57:56.291Z,29.07
2018-11-13T05:02:59.720Z,29.53
2018-11-13T05:08:03.094Z,31.93
2018-11-13T05:13:06.491Z,29.83
2018-11-13T05:18:09.870Z,29.80
2018-11-13T05:23:13.355Z,28.97
2018-11-13T05:28:16.700Z,32.47
2018-11-13T05:33:20.474Z,31.40
2018-11-13T05:38:23.951Z,30.63
2018-11-13T05:43:27.796Z,28.27
2018-11-13T05:48:31.402Z,29.90
2018-11-13T05:53:34.870Z,29.53
2018-11-13T05:58:38.387Z,31.40
2018-11-13T06:03:41.803Z,30.20
2018-11-13T06:08:45.421Z,27.33
2018-11-13T06:13:48.802Z,29.90
2018-11-13T06:18:52.167Z,28.63
2018-11-13T06:23:55.633Z,26.97
2018-11-13T06:28:58.997Z,27.87
2018-11-13T06:34:02.451Z,29.53
2018-11-13T06:39:09.133Z,27.53
2018-11-13T06:44:12.522Z,29.07
2018-11-13T06:49:16.066Z,31.33
2018-11-13T06:54:30.770Z,33.75
2018-11-13T06:59:34.199Z,33.93
2018-11-13T07:04:37.554Z,33.47
2018-11-13T07:09:40.925Z,31.47
2018-11-13T07:14:44.349Z,30.33
2018-11-13T07:19:47.736Z,31.07
2018-11-13T07:24:51.126Z,28.73
2018-11-13T07:29:55.212Z,33.15
2018-11-13T07:34:58.643Z,29.13
2018-11-13T07:40:02.167Z,28.67
2018-11-13T07:45:07.892Z,32.53
2018-11-13T07:50:12.602Z,29.33
2018-11-13T07:55:16.959Z,30.10
2018-11-13T08:00:22.715Z,31.13
2018-11-13T08:05:26.217Z,28.10
2018-11-13T08:10:29.590Z,25.93
2018-11-13T08:15:33.030Z,27.57
2018-11-13T08:20:36.411Z,29.13
2018-11-13T08:25:39.861Z,27.37
2018-11-13T08:30:43.194Z,25.87
2018-11-13T08:35:46.689Z,25.72
2018-11-13T08:40:50.072Z,26.77
2018-11-13T08:45:53.450Z,27.30
2018-11-13T08:50:57.004Z,29.07
2018-11-13T08:56:00.374Z,26.67
2018-11-13T09:01:03.759Z,27.10
2018-11-13T09:06:07.127Z,23.80
2018-11-13T09:11:10.660Z,29.53
2018-11-13T09:16:14.093Z,24.17
2018-11-13T09:21:17.518Z,26.03
2018-11-13T09:26:20.937Z,27.73
2018-11-13T09:31:24.424Z,28.70
2018-11-13T09:36:27.870Z,28.07
2018-11-13T09:41:31.278Z,30.07
2018-11-13T09:46:34.717Z,29.93
2018-11-13T09:51:38.147Z,31.63
2018-11-13T09:56:41.646Z,27.00
2018-11-13T10:01:45.596Z,28.30
2018-11-13T10:06:48.812Z,29.07
2018-11-13T10:11:52.163Z,32.10
2018-11-13T10:16:55.686Z,32.30
2018-11-13T10:21:59.098Z,30.83
2018-11-13T10:27:02.512Z,30.90
2018-11-13T10:32:06.125Z,31.97
2018-11-13T10:37:09.595Z,31.00
2018-11-13T10:42:12.966Z,33.77
2018-11-13T10:47:16.370Z,30.23
2018-11-13T10:52:19.939Z,31.47
2018-11-13T10:57:23.557Z,33.57
2018-11-13T11:02:38.967Z,30.70
2018-11-13T11:07:42.285Z,32.30
2018-11-13T11:12:45.928Z,35.70
2018-11-13T11:17:49.426Z,35.77
2018-11-13T11:22:52.992Z,34.23
2018-11-13T11:27:56.396Z,34.57
2018-11-13T11:32:59.856Z,38.67
2018-11-13T11:38:03.341Z,45.00
2018-11-13T11:43:07.006Z,33.97
2018-11-13T11:48:10.530Z,29.70
2018-11-13T11:53:13.967Z,38.93
2018-11-13T11:58:17.423Z,35.10
2018-11-13T12:03:20.918Z,34.00
2018-11-13T12:08:24.432Z,30.77
2018-11-13T12:13:27.833Z,31.47
2018-11-13T12:18:31.256Z,35.77
2018-11-13T12:23:34.783Z,35.83
2018-11-13T12:28:38.243Z,33.80
2018-11-13T12:33:41.661Z,33.63
2018-11-13T12:38:45.042Z,32.37
2018-11-13T12:43:48.447Z,34.30
2018-11-13T12:48:51.922Z,34.30
2018-11-13T12:53:55.233Z,32.13
2018-11-13T12:58:58.605Z,36.50
2018-11-13T13:04:02.030Z,29.80
2018-11-13T13:09:07.966Z,22.23
2018-11-13T13:14:15.264Z,16.07
2018-11-13T13:19:19.548Z,12.23
2018-11-13T13:24:23.002Z,8.00
2018-11-13T13:29:26.587Z,6.97
2018-11-13T13:34:29.966Z,6.00
2018-11-13T13:39:33.450Z,6.03
2018-11-13T13:44:36.866Z,4.83
2018-11-13T13:49:40.251Z,5.73
2018-11-13T13:54:43.693Z,5.73
2018-11-13T13:59:47.089Z,4.10
2018-11-13T14:04:50.514Z,4.20
2018-11-13T14:09:54.036Z,4.73
2018-11-13T14:14:57.597Z,4.93
2018-11-13T14:20:00.927Z,4.57
2018-11-13T14:25:04.430Z,5.00
2018-11-13T14:30:13.568Z,7.20
2018-11-13T14:35:17.246Z,4.80
2018-11-13T14:40:25.811Z,6.03
2018-11-13T14:45:29.615Z,4.83
2018-11-13T14:50:34.408Z,4.73
2018-11-13T14:55:40.048Z,5.50
2018-11-13T15:00:43.952Z,4.87
2018-11-13T15:05:47.375Z,4.87
2018-11-13T15:10:51.954Z,7.03
2018-11-13T15:15:55.467Z,4.80
2018-11-13T15:20:58.890Z,4.70
2018-11-13T15:26:02.354Z,4.37
2018-11-13T15:31:05.815Z,6.12
2018-11-13T15:36:09.167Z,4.42
2018-11-13T15:41:12.579Z,4.77
2018-11-13T15:46:15.997Z,3.97
2018-11-13T15:51:19.442Z,3.40
2018-11-13T15:56:22.827Z,5.37
2018-11-13T16:01:26.219Z,3.70
2018-11-13T16:06:29.735Z,3.50
2018-11-13T16:11:33.142Z,2.90
2018-11-13T16:16:36.577Z,2.93
2018-11-13T16:21:40.113Z,2.77
2018-11-13T16:26:43.641Z,4.90
2018-11-13T16:31:47.018Z,6.90
2018-11-13T16:36:50.484Z,3.20
2018-11-13T16:41:53.924Z,3.27
2018-11-13T16:46:57.226Z,5.73
2018-11-13T16:52:00.670Z,4.03
2018-11-13T16:57:04.102Z,3.53
2018-11-13T17:02:07.776Z,3.50
2018-11-13T17:07:11.411Z,4.23
2018-11-13T17:12:14.755Z,7.43
2018-11-13T17:17:18.115Z,2.90
2018-11-13T17:22:21.514Z,2.63
2018-11-13T17:27:25.048Z,2.40
2018-11-13T17:32:28.474Z,3.63
2018-11-13T17:37:31.892Z,2.90
2018-11-13T17:42:35.402Z,3.13
2018-11-13T17:47:38.850Z,2.83
2018-11-13T17:52:43.242Z,1.90
2018-11-13T17:57:47.666Z,2.50
2018-11-13T18:02:51.244Z,1.97
2018-11-13T18:07:55.350Z,2.43
2018-11-13T18:12:58.774Z,2.27
2018-11-13T18:18:02.512Z,1.60
2018-11-13T18:23:06.786Z,3.30
2018-11-13T18:28:10.278Z,2.97
2018-11-13T18:33:13.676Z,2.63
2018-11-13T18:38:17.151Z,2.10
2018-11-13T18:43:20.642Z,1.83
2018-11-13T18:48:24.042Z,3.40
2018-11-13T18:53:27.766Z,4.20
2018-11-13T18:58:31.408Z,1.97
2018-11-13T19:03:35.077Z,2.00
2018-11-13T19:08:38.433Z,1.97
2018-11-13T19:13:42.200Z,2.50
2018-11-13T19:18:45.632Z,2.83
2018-11-13T19:23:49.001Z,3.70
2018-11-13T19:28:53.812Z,1.93
2018-11-13T19:33:57.963Z,2.60
2018-11-13T19:39:01.849Z,1.87
2018-11-13T19:44:06.433Z,2.83
2018-11-13T19:49:10.565Z,2.40
2018-11-13T19:54:14.784Z,3.33
2018-11-13T19:59:18.939Z,2.43
2018-11-13T20:04:23.163Z,3.07
2018-11-13T20:09:27.249Z,3.13
2018-11-13T20:14:30.976Z,2.40
2018-11-13T20:19:34.483Z,2.47
2018-11-13T20:24:37.962Z,1.90
2018-11-13T20:29:41.355Z,8.00
2018-11-13T20:34:44.871Z,5.33
2018-11-13T20:39:48.214Z,3.23
2018-11-13T20:44:51.595Z,3.73
2018-11-13T20:49:54.978Z,2.67
2018-11-13T20:54:59.354Z,2.20
2018-11-13T21:00:02.815Z,2.60
2018-11-13T21:05:06.462Z,2.93
2018-11-13T21:10:12.283Z,2.50
2018-11-13T21:15:17.040Z,6.97
2018-11-13T21:20:21.003Z,3.90
2018-11-13T21:25:25.394Z,4.00
2018-11-13T21:30:28.861Z,4.57
2018-11-13T21:35:32.331Z,3.60
2018-11-13T21:40:35.727Z,3.20
2018-11-13T21:45:39.110Z,4.33
2018-11-13T21:50:42.563Z,3.73
2018-11-13T21:55:46.055Z,4.03
2018-11-13T22:00:49.642Z,3.67
2018-11-13T22:05:53.319Z,3.37
2018-11-13T22:10:56.683Z,6.10
2018-11-13T22:16:00.058Z,4.33
2018-11-13T22:21:04.226Z,5.27
2018-11-13T22:26:07.742Z,5.00
2018-11-13T22:31:11.572Z,3.87
2018-11-13T22:36:15.061Z,4.03
2018-11-13T22:41:18.638Z,4.03
2018-11-13T22:46:21.917Z,3.37
2018-11-13T22:51:25.283Z,2.90
2018-11-13T22:56:28.790Z,4.93
2018-11-13T23:01:32.202Z,3.97
2018-11-13T23:06:35.564Z,5.23
2018-11-13T23:11:39.006Z,8.97
2018-11-13T23:16:42.366Z,4.20
2018-11-13T23:21:45.742Z,3.50
2018-11-13T23:26:49.134Z,3.70
2018-11-13T23:31:52.496Z,3.30
2018-11-13T23:36:55.893Z,4.47
2018-11-13T23:41:59.287Z,5.10
2018-11-13T23:47:02.671Z,5.73
2018-11-13T23:52:06.438Z,5.90
2018-11-13T23:57:09.859Z,3.53
